sensor_id;sensor_type;location;lat;lon;timestamp;pressure;altitude;pressure_sealevel;temperature;humidity
54806;BME280;62866;55.776;37.496;2023-02-27T00:01:06;99005.97;;;-1.93;76.90
54806;BME280;62866;55.776;37.496;2023-02-27T00:03:32;99022.00;;;-1.86;77.20
54806;BME280;62866;55.776;37.496;2023-02-27T00:05:57;99030.69;;;-1.85;77.30
54806;BME280;62866;55.776;37.496;2023-02-27T00:08:23;99022.94;;;-1.87;76.94
54806;BME280;62866;55.776;37.496;2023-02-27T00:10:48;99022.94;;;-1.87;76.60
54806;BME280;62866;55.776;37.496;2023-02-27T00:13:15;99034.06;;;-1.95;76.58
54806;BME280;62866;55.776;37.496;2023-02-27T00:15:41;99036.94;;;-1.98;76.87
54806;BME280;62866;55.776;37.496;2023-02-27T00:18:09;99033.22;;;-1.95;76.05
54806;BME280;62866;55.776;37.496;2023-02-27T00:20:34;99042.63;;;-1.93;75.91
54806;BME280;62866;55.776;37.496;2023-02-27T00:23:05;99032.84;;;-1.91;75.90
54806;BME280;62866;55.776;37.496;2023-02-27T00:25:32;99046.75;;;-1.90;75.33
54806;BME280;62866;55.776;37.496;2023-02-27T00:27:58;99057.53;;;-1.93;75.31
54806;BME280;62866;55.776;37.496;2023-02-27T00:30:24;99053.91;;;-1.92;75.59
54806;BME280;62866;55.776;37.496;2023-02-27T00:32:51;99041.25;;;-2.08;75.58
54806;BME280;62866;55.776;37.496;2023-02-27T00:35:17;99051.09;;;-2.00;75.54
54806;BME280;62866;55.776;37.496;2023-02-27T00:37:43;99068.03;;;-2.04;74.73
54806;BME280;62866;55.776;37.496;2023-02-27T00:40:10;99057.69;;;-2.06;75.27
54806;BME280;62866;55.776;37.496;2023-02-27T00:42:36;99069.59;;;-2.02;75.17
54806;BME280;62866;55.776;37.496;2023-02-27T00:45:03;99064.72;;;-2.06;75.43
54806;BME280;62866;55.776;37.496;2023-02-27T00:47:29;99067.72;;;-2.11;75.39
54806;BME280;62866;55.776;37.496;2023-02-27T00:49:55;99074.34;;;-2.07;75.48
54806;BME280;62866;55.776;37.496;2023-02-27T00:52:20;99059.88;;;-2.11;74.72
54806;BME280;62866;55.776;37.496;2023-02-27T00:54:46;99061.84;;;-2.03;74.12
54806;BME280;62866;55.776;37.496;2023-02-27T00:57:11;99072.44;;;-2.05;74.07
54806;BME280;62866;55.776;37.496;2023-02-27T00:59:37;99082.53;;;-2.00;73.08
54806;BME280;62866;55.776;37.496;2023-02-27T01:02:03;99087.78;;;-2.00;73.52
54806;BME280;62866;55.776;37.496;2023-02-27T01:04:29;99093.16;;;-2.02;73.47
54806;BME280;62866;55.776;37.496;2023-02-27T01:06:54;99091.94;;;-1.98;73.09
54806;BME280;62866;55.776;37.496;2023-02-27T01:09:20;99111.94;;;-1.97;73.60
54806;BME280;62866;55.776;37.496;2023-02-27T01:11:45;99106.25;;;-2.02;72.86
54806;BME280;62866;55.776;37.496;2023-02-27T01:14:11;99103.16;;;-2.07;73.15
54806;BME280;62866;55.776;37.496;2023-02-27T01:16:37;99108.78;;;-2.11;73.47
54806;BME280;62866;55.776;37.496;2023-02-27T01:19:02;99104.09;;;-2.28;73.21
54806;BME280;62866;55.776;37.496;2023-02-27T01:21:28;99116.56;;;-2.21;72.91
54806;BME280;62866;55.776;37.496;2023-02-27T01:23:53;99120.47;;;-2.15;72.82
54806;BME280;62866;55.776;37.496;2023-02-27T01:26:19;99120.94;;;-2.10;72.45
54806;BME280;62866;55.776;37.496;2023-02-27T01:28:45;99119.63;;;-2.16;73.13
54806;BME280;62866;55.776;37.496;2023-02-27T01:31:11;99132.25;;;-2.10;73.22
54806;BME280;62866;55.776;37.496;2023-02-27T01:33:36;99126.28;;;-2.12;72.82
54806;BME280;62866;55.776;37.496;2023-02-27T01:36:02;99130.09;;;-2.16;72.65
54806;BME280;62866;55.776;37.496;2023-02-27T01:38:27;99130.72;;;-2.23;72.54
54806;BME280;62866;55.776;37.496;2023-02-27T01:40:53;99137.31;;;-2.29;72.96
54806;BME280;62866;55.776;37.496;2023-02-27T01:43:20;99142.66;;;-2.31;73.20
54806;BME280;62866;55.776;37.496;2023-02-27T01:45:47;99146.56;;;-2.25;72.78
54806;BME280;62866;55.776;37.496;2023-02-27T01:48:31;99154.56;;;-2.26;73.31
54806;BME280;62866;55.776;37.496;2023-02-27T01:51:02;99166.22;;;-2.31;73.39
54806;BME280;62866;55.776;37.496;2023-02-27T01:53:31;99165.75;;;-2.36;73.84
54806;BME280;62866;55.776;37.496;2023-02-27T01:56:08;99173.13;;;-2.30;74.00
54806;BME280;62866;55.776;37.496;2023-02-27T01:58:36;99167.66;;;-2.38;73.43
54806;BME280;62866;55.776;37.496;2023-02-27T02:01:02;99191.56;;;-2.31;73.52
54806;BME280;62866;55.776;37.496;2023-02-27T02:06:25;99190.13;;;-2.24;74.15
54806;BME280;62866;55.776;37.496;2023-02-27T02:08:53;99199.75;;;-2.24;73.50
54806;BME280;62866;55.776;37.496;2023-02-27T02:11:20;99206.53;;;-2.22;73.59
54806;BME280;62866;55.776;37.496;2023-02-27T02:13:48;99210.84;;;-2.21;72.98
54806;BME280;62866;55.776;37.496;2023-02-27T02:16:44;99222.88;;;-2.30;73.46
54806;BME280;62866;55.776;37.496;2023-02-27T02:36:19;99262.59;;;-2.24;73.69
54806;BME280;62866;55.776;37.496;2023-02-27T02:48:19;99276.78;;;-2.27;73.71
54806;BME280;62866;55.776;37.496;2023-02-27T02:50:23;99280.25;;;-2.26;73.48
54806;BME280;62866;55.776;37.496;2023-02-27T02:52:59;99278.91;;;-2.32;73.50
54806;BME280;62866;55.776;37.496;2023-02-27T02:55:37;99297.34;;;-2.34;73.93
54806;BME280;62866;55.776;37.496;2023-02-27T03:00:55;99293.91;;;-2.23;73.39
54806;BME280;62866;55.776;37.496;2023-02-27T03:03:28;99300.34;;;-2.27;73.07
54806;BME280;62866;55.776;37.496;2023-02-27T03:05:59;99315.44;;;-2.31;73.79
54806;BME280;62866;55.776;37.496;2023-02-27T03:08:31;99318.06;;;-2.42;73.74
54806;BME280;62866;55.776;37.496;2023-02-27T03:11:00;99315.09;;;-2.37;74.05
54806;BME280;62866;55.776;37.496;2023-02-27T03:13:36;99326.88;;;-2.32;74.04
54806;BME280;62866;55.776;37.496;2023-02-27T03:16:28;99331.28;;;-2.32;73.90
54806;BME280;62866;55.776;37.496;2023-02-27T03:21:53;99314.25;;;-2.38;74.07
54806;BME280;62866;55.776;37.496;2023-02-27T03:24:32;99334.16;;;-2.35;73.56
54806;BME280;62866;55.776;37.496;2023-02-27T03:27:00;99348.06;;;-2.35;73.95
54806;BME280;62866;55.776;37.496;2023-02-27T03:35:01;99340.53;;;-2.50;73.74
54806;BME280;62866;55.776;37.496;2023-02-27T03:40:31;99371.97;;;-2.39;74.44
54806;BME280;62866;55.776;37.496;2023-02-27T03:43:09;99372.34;;;-2.44;74.50
54806;BME280;62866;55.776;37.496;2023-02-27T03:45:59;99326.81;;;-2.76;74.13
54806;BME280;62866;55.776;37.496;2023-02-27T03:48:26;99384.00;;;-2.37;74.64
54806;BME280;62866;55.776;37.496;2023-02-27T03:50:52;99387.94;;;-2.31;74.44
54806;BME280;62866;55.776;37.496;2023-02-27T03:56:11;99398.41;;;-2.31;74.38
54806;BME280;62866;55.776;37.496;2023-02-27T03:58:38;99401.13;;;-2.33;74.25
54806;BME280;62866;55.776;37.496;2023-02-27T04:01:04;99408.41;;;-2.25;73.91
54806;BME280;62866;55.776;37.496;2023-02-27T04:03:34;99422.94;;;-2.21;74.35
54806;BME280;62866;55.776;37.496;2023-02-27T04:06:01;99422.56;;;-2.27;73.98
54806;BME280;62866;55.776;37.496;2023-02-27T04:09:02;99422.66;;;-2.40;74.79
54806;BME280;62866;55.776;37.496;2023-02-27T04:11:38;99429.69;;;-2.41;74.62
54806;BME280;62866;55.776;37.496;2023-02-27T04:17:13;99425.53;;;-2.43;74.73
54806;BME280;62866;55.776;37.496;2023-02-27T04:22:37;99436.09;;;-2.34;74.36
54806;BME280;62866;55.776;37.496;2023-02-27T04:25:23;99436.00;;;-2.32;73.99
54806;BME280;62866;55.776;37.496;2023-02-27T04:28:15;99446.38;;;-2.31;74.61
54806;BME280;62866;55.776;37.496;2023-02-27T04:30:58;99452.31;;;-2.28;74.39
54806;BME280;62866;55.776;37.496;2023-02-27T04:36:14;99466.16;;;-2.26;74.74
54806;BME280;62866;55.776;37.496;2023-02-27T04:38:48;99455.47;;;-2.47;74.75
54806;BME280;62866;55.776;37.496;2023-02-27T04:41:22;99485.75;;;-2.32;75.22
54806;BME280;62866;55.776;37.496;2023-02-27T04:43:51;99487.31;;;-2.30;74.59
54806;BME280;62866;55.776;37.496;2023-02-27T04:46:20;99481.13;;;-2.28;74.58
54806;BME280;62866;55.776;37.496;2023-02-27T04:52:21;99498.66;;;-2.18;74.26
54806;BME280;62866;55.776;37.496;2023-02-27T04:57:32;99504.44;;;-2.25;74.58
54806;BME280;62866;55.776;37.496;2023-02-27T05:00:00;99503.53;;;-2.13;74.61
54806;BME280;62866;55.776;37.496;2023-02-27T05:02:37;99506.00;;;-2.23;74.33
54806;BME280;62866;55.776;37.496;2023-02-27T05:05:14;99518.25;;;-2.35;75.08
54806;BME280;62866;55.776;37.496;2023-02-27T05:07:48;99513.59;;;-2.31;75.35
54806;BME280;62866;55.776;37.496;2023-02-27T05:10:37;99518.50;;;-2.26;75.29
54806;BME280;62866;55.776;37.496;2023-02-27T05:13:25;99519.00;;;-2.21;74.75
54806;BME280;62866;55.776;37.496;2023-02-27T05:15:57;99530.41;;;-2.22;74.63
54806;BME280;62866;55.776;37.496;2023-02-27T05:18:25;99534.81;;;-2.23;74.78
54806;BME280;62866;55.776;37.496;2023-02-27T05:20:58;99530.41;;;-2.22;74.69
54806;BME280;62866;55.776;37.496;2023-02-27T05:23:49;99530.25;;;-2.32;75.23
54806;BME280;62866;55.776;37.496;2023-02-27T05:26:21;99536.94;;;-2.28;75.08
54806;BME280;62866;55.776;37.496;2023-02-27T05:29:02;99540.78;;;-2.21;74.95
54806;BME280;62866;55.776;37.496;2023-02-27T05:31:59;99545.41;;;-2.24;74.39
54806;BME280;62866;55.776;37.496;2023-02-27T05:34:41;99532.41;;;-2.37;74.27
54806;BME280;62866;55.776;37.496;2023-02-27T05:37:15;99531.19;;;-2.44;74.85
54806;BME280;62866;55.776;37.496;2023-02-27T05:39:45;99541.19;;;-2.38;75.33
54806;BME280;62866;55.776;37.496;2023-02-27T05:42:24;99552.56;;;-2.26;74.99
54806;BME280;62866;55.776;37.496;2023-02-27T05:45:21;99556.28;;;-2.18;75.11
54806;BME280;62866;55.776;37.496;2023-02-27T05:47:50;99568.06;;;-2.12;75.13
54806;BME280;62866;55.776;37.496;2023-02-27T05:50:24;99560.81;;;-2.09;75.02
54806;BME280;62866;55.776;37.496;2023-02-27T05:52:52;99567.97;;;-2.00;74.75
54806;BME280;62866;55.776;37.496;2023-02-27T05:55:25;99572.06;;;-1.96;75.16
54806;BME280;62866;55.776;37.496;2023-02-27T05:58:03;99580.59;;;-2.05;74.98
54806;BME280;62866;55.776;37.496;2023-02-27T06:00:49;99578.25;;;-1.97;75.53
54806;BME280;62866;55.776;37.496;2023-02-27T06:03:17;99585.63;;;-1.91;75.31
54806;BME280;62866;55.776;37.496;2023-02-27T06:05:43;99588.97;;;-1.88;75.10
54806;BME280;62866;55.776;37.496;2023-02-27T06:08:10;99587.41;;;-2.02;75.49
54806;BME280;62866;55.776;37.496;2023-02-27T06:10:36;99597.63;;;-1.99;75.80
54806;BME280;62866;55.776;37.496;2023-02-27T06:13:02;99597.91;;;-1.91;75.58
54806;BME280;62866;55.776;37.496;2023-02-27T06:15:28;99602.13;;;-1.77;75.32
54806;BME280;62866;55.776;37.496;2023-02-27T06:17:54;99607.75;;;-1.71;75.58
54806;BME280;62866;55.776;37.496;2023-02-27T06:20:21;99609.03;;;-1.76;74.98
54806;BME280;62866;55.776;37.496;2023-02-27T06:22:46;99608.69;;;-1.72;75.48
54806;BME280;62866;55.776;37.496;2023-02-27T06:25:12;99610.94;;;-1.67;75.05
54806;BME280;62866;55.776;37.496;2023-02-27T06:27:37;99621.56;;;-1.69;75.64
54806;BME280;62866;55.776;37.496;2023-02-27T06:30:04;99615.22;;;-1.77;75.44
54806;BME280;62866;55.776;37.496;2023-02-27T06:32:32;99619.38;;;-1.75;74.38
54806;BME280;62866;55.776;37.496;2023-02-27T06:34:57;99617.16;;;-1.68;74.11
54806;BME280;62866;55.776;37.496;2023-02-27T06:37:23;99621.69;;;-1.70;75.35
54806;BME280;62866;55.776;37.496;2023-02-27T06:39:49;99618.19;;;-1.82;75.53
54806;BME280;62866;55.776;37.496;2023-02-27T06:42:15;99623.31;;;-1.80;75.74
54806;BME280;62866;55.776;37.496;2023-02-27T06:44:40;99635.09;;;-1.75;75.44
54806;BME280;62866;55.776;37.496;2023-02-27T06:47:06;99631.91;;;-1.78;75.96
54806;BME280;62866;55.776;37.496;2023-02-27T06:49:31;99627.66;;;-1.68;76.21
54806;BME280;62866;55.776;37.496;2023-02-27T06:51:57;99632.31;;;-1.61;76.28
54806;BME280;62866;55.776;37.496;2023-02-27T06:54:22;99632.28;;;-1.72;76.59
54806;BME280;62866;55.776;37.496;2023-02-27T06:56:48;99648.63;;;-1.68;76.89
54806;BME280;62866;55.776;37.496;2023-02-27T06:59:16;99657.06;;;-1.65;76.92
54806;BME280;62866;55.776;37.496;2023-02-27T07:01:41;99662.09;;;-1.62;76.42
54806;BME280;62866;55.776;37.496;2023-02-27T07:04:14;99647.56;;;-1.89;76.82
54806;BME280;62866;55.776;37.496;2023-02-27T07:06:40;99662.03;;;-1.73;77.43
54806;BME280;62866;55.776;37.496;2023-02-27T07:09:06;99674.47;;;-1.64;77.45
54806;BME280;62866;55.776;37.496;2023-02-27T07:11:31;99670.28;;;-1.66;77.16
54806;BME280;62866;55.776;37.496;2023-02-27T07:13:57;99689.34;;;-1.64;76.96
54806;BME280;62866;55.776;37.496;2023-02-27T07:16:23;99679.50;;;-1.61;77.09
54806;BME280;62866;55.776;37.496;2023-02-27T07:18:48;99680.25;;;-1.47;77.21
54806;BME280;62866;55.776;37.496;2023-02-27T07:21:14;99674.66;;;-1.43;77.11
54806;BME280;62866;55.776;37.496;2023-02-27T07:23:40;99676.19;;;-1.40;76.55
54806;BME280;62866;55.776;37.496;2023-02-27T07:26:06;99676.09;;;-1.39;76.60
54806;BME280;62866;55.776;37.496;2023-02-27T07:28:32;99684.69;;;-1.37;76.37
54806;BME280;62866;55.776;37.496;2023-02-27T07:30:57;99656.59;;;-1.59;77.53
54806;BME280;62866;55.776;37.496;2023-02-27T07:33:23;99694.47;;;-1.28;77.91
54806;BME280;62866;55.776;37.496;2023-02-27T07:35:49;99688.53;;;-1.19;77.16
54806;BME280;62866;55.776;37.496;2023-02-27T07:38:14;99707.00;;;-1.20;76.22
54806;BME280;62866;55.776;37.496;2023-02-27T07:40:40;99696.75;;;-1.34;76.77
54806;BME280;62866;55.776;37.496;2023-02-27T07:43:06;99706.97;;;-1.42;76.14
54806;BME280;62866;55.776;37.496;2023-02-27T07:45:32;99723.44;;;-1.29;76.91
54806;BME280;62866;55.776;37.496;2023-02-27T07:47:58;99703.19;;;-1.27;76.60
54806;BME280;62866;55.776;37.496;2023-02-27T07:50:23;99713.81;;;-1.18;76.69
54806;BME280;62866;55.776;37.496;2023-02-27T07:52:50;99704.28;;;-1.07;76.62
54806;BME280;62866;55.776;37.496;2023-02-27T07:55:16;99713.00;;;-1.07;75.78
54806;BME280;62866;55.776;37.496;2023-02-27T07:57:43;99694.16;;;-1.12;75.71
54806;BME280;62866;55.776;37.496;2023-02-27T08:00:10;99713.09;;;-1.20;76.47
54806;BME280;62866;55.776;37.496;2023-02-27T08:02:36;99712.75;;;-1.15;76.81
54806;BME280;62866;55.776;37.496;2023-02-27T08:05:02;99703.44;;;-1.08;76.76
54806;BME280;62866;55.776;37.496;2023-02-27T08:07:27;99724.25;;;-0.94;76.82
54806;BME280;62866;55.776;37.496;2023-02-27T08:09:53;99731.03;;;-0.91;76.23
54806;BME280;62866;55.776;37.496;2023-02-27T08:12:18;99736.66;;;-0.85;76.80
54806;BME280;62866;55.776;37.496;2023-02-27T08:14:44;99738.06;;;-0.92;76.21
54806;BME280;62866;55.776;37.496;2023-02-27T08:17:10;99735.94;;;-0.87;76.48
54806;BME280;62866;55.776;37.496;2023-02-27T08:19:35;99737.09;;;-0.91;75.39
54806;BME280;62866;55.776;37.496;2023-02-27T08:22:01;99742.97;;;-0.87;74.69
54806;BME280;62866;55.776;37.496;2023-02-27T08:24:27;99742.59;;;-0.94;75.48
54806;BME280;62866;55.776;37.496;2023-02-27T08:26:52;99744.16;;;-0.80;75.38
54806;BME280;62866;55.776;37.496;2023-02-27T08:29:18;99750.16;;;-0.78;75.04
54806;BME280;62866;55.776;37.496;2023-02-27T08:31:44;99754.56;;;-0.79;75.01
54806;BME280;62866;55.776;37.496;2023-02-27T08:34:11;99754.91;;;-0.72;74.79
54806;BME280;62866;55.776;37.496;2023-02-27T08:36:37;99753.84;;;-0.58;74.70
54806;BME280;62866;55.776;37.496;2023-02-27T08:39:04;99738.09;;;-0.69;74.16
54806;BME280;62866;55.776;37.496;2023-02-27T08:41:29;99754.22;;;-0.52;74.92
54806;BME280;62866;55.776;37.496;2023-02-27T08:43:55;99745.75;;;-0.44;74.52
54806;BME280;62866;55.776;37.496;2023-02-27T08:46:20;99767.72;;;-0.34;74.23
54806;BME280;62866;55.776;37.496;2023-02-27T08:48:46;99756.38;;;-0.34;73.87
54806;BME280;62866;55.776;37.496;2023-02-27T08:51:12;99765.78;;;-0.21;74.34
54806;BME280;62866;55.776;37.496;2023-02-27T08:53:37;99768.66;;;-0.24;74.18
54806;BME280;62866;55.776;37.496;2023-02-27T08:56:03;99750.41;;;-0.25;74.53
54806;BME280;62866;55.776;37.496;2023-02-27T08:58:29;99768.88;;;-0.16;74.21
54806;BME280;62866;55.776;37.496;2023-02-27T09:00:55;99768.13;;;0.05;74.41
54806;BME280;62866;55.776;37.496;2023-02-27T09:03:20;99765.41;;;-0.05;74.35
54806;BME280;62866;55.776;37.496;2023-02-27T09:05:47;99774.25;;;-0.06;74.34
54806;BME280;62866;55.776;37.496;2023-02-27T09:08:14;99780.94;;;-0.02;74.64
54806;BME280;62866;55.776;37.496;2023-02-27T09:10:40;99786.44;;;0.06;74.44
54806;BME280;62866;55.776;37.496;2023-02-27T09:13:06;99789.16;;;0.05;74.18
54806;BME280;62866;55.776;37.496;2023-02-27T09:15:31;99790.25;;;0.02;73.81
54806;BME280;62866;55.776;37.496;2023-02-27T09:18:00;99796.94;;;-0.16;72.97
54806;BME280;62866;55.776;37.496;2023-02-27T09:20:28;99797.78;;;-0.16;72.72
54806;BME280;62866;55.776;37.496;2023-02-27T09:22:56;99789.91;;;-0.27;72.75
54806;BME280;62866;55.776;37.496;2023-02-27T09:25:22;99813.56;;;-0.38;72.80
54806;BME280;62866;55.776;37.496;2023-02-27T09:27:48;99820.47;;;-0.37;72.45
54806;BME280;62866;55.776;37.496;2023-02-27T09:30:14;99820.00;;;-0.31;71.89
54806;BME280;62866;55.776;37.496;2023-02-27T09:32:40;99826.31;;;-0.33;71.28
54806;BME280;62866;55.776;37.496;2023-02-27T09:35:06;99831.59;;;-0.45;71.30
54806;BME280;62866;55.776;37.496;2023-02-27T09:37:31;99847.34;;;-0.45;71.87
54806;BME280;62866;55.776;37.496;2023-02-27T09:39:57;99844.22;;;-0.39;71.74
54806;BME280;62866;55.776;37.496;2023-02-27T09:42:26;99842.81;;;-0.43;71.94
54806;BME280;62866;55.776;37.496;2023-02-27T09:44:56;99855.94;;;-0.43;71.76
54806;BME280;62866;55.776;37.496;2023-02-27T09:47:28;99846.28;;;-0.42;71.41
54806;BME280;62866;55.776;37.496;2023-02-27T09:49:59;99846.03;;;-0.28;71.57
54806;BME280;62866;55.776;37.496;2023-02-27T09:52:27;99845.81;;;-0.14;71.17
54806;BME280;62866;55.776;37.496;2023-02-27T09:54:54;99842.81;;;0.02;70.11
54806;BME280;62866;55.776;37.496;2023-02-27T10:00:59;99844.16;;;0.51;69.07
54806;BME280;62866;55.776;37.496;2023-02-27T10:08:56;99844.56;;;0.35;69.85
54806;BME280;62866;55.776;37.496;2023-02-27T10:15:33;99856.13;;;0.44;69.42
54806;BME280;62866;55.776;37.496;2023-02-27T10:17:44;99844.69;;;0.76;68.35
54806;BME280;62866;55.776;37.496;2023-02-27T10:20:32;99857.59;;;1.11;67.14
54806;BME280;62866;55.776;37.496;2023-02-27T10:23:02;99863.56;;;1.34;67.10
54806;BME280;62866;55.776;37.496;2023-02-27T10:25:32;99878.06;;;1.40;67.10
54806;BME280;62866;55.776;37.496;2023-02-27T10:28:11;99866.16;;;1.25;66.79
54806;BME280;62866;55.776;37.496;2023-02-27T10:30:37;99871.72;;;1.10;67.20
54806;BME280;62866;55.776;37.496;2023-02-27T10:35:37;99876.97;;;0.90;67.43
54806;BME280;62866;55.776;37.496;2023-02-27T10:38:07;99868.03;;;0.70;67.15
54806;BME280;62866;55.776;37.496;2023-02-27T10:40:38;99868.03;;;0.81;66.64
54806;BME280;62866;55.776;37.496;2023-02-27T10:43:04;99874.13;;;0.82;66.60
54806;BME280;62866;55.776;37.496;2023-02-27T10:45:31;99876.38;;;0.86;66.88
54806;BME280;62866;55.776;37.496;2023-02-27T10:47:57;99886.78;;;0.76;67.67
54806;BME280;62866;55.776;37.496;2023-02-27T10:50:29;99886.13;;;0.52;68.14
54806;BME280;62866;55.776;37.496;2023-02-27T10:52:59;99892.31;;;0.73;68.73
54806;BME280;62866;55.776;37.496;2023-02-27T10:55:33;99897.75;;;0.93;67.94
54806;BME280;62866;55.776;37.496;2023-02-27T10:58:01;99900.88;;;0.98;68.55
54806;BME280;62866;55.776;37.496;2023-02-27T11:00:43;99902.16;;;1.03;68.98
54806;BME280;62866;55.776;37.496;2023-02-27T11:03:22;99909.91;;;1.16;69.33
54806;BME280;62866;55.776;37.496;2023-02-27T11:06:07;99915.66;;;1.42;69.60
54806;BME280;62866;55.776;37.496;2023-02-27T11:08:34;99916.47;;;1.42;70.32
54806;BME280;62866;55.776;37.496;2023-02-27T11:11:03;99918.84;;;1.45;70.26
54806;BME280;62866;55.776;37.496;2023-02-27T11:13:33;99931.28;;;1.23;72.91
54806;BME280;62866;55.776;37.496;2023-02-27T11:16:08;99917.81;;;1.05;73.13
54806;BME280;62866;55.776;37.496;2023-02-27T11:18:37;99912.78;;;0.59;74.92
54806;BME280;62866;55.776;37.496;2023-02-27T11:23:35;99935.06;;;0.21;75.36
54806;BME280;62866;55.776;37.496;2023-02-27T11:26:15;99896.50;;;-0.47;75.81
54806;BME280;62866;55.776;37.496;2023-02-27T11:28:42;99941.34;;;-0.26;76.96
54806;BME280;62866;55.776;37.496;2023-02-27T11:31:16;99947.03;;;-0.32;75.79
54806;BME280;62866;55.776;37.496;2023-02-27T11:33:50;99939.41;;;-0.35;76.01
54806;BME280;62866;55.776;37.496;2023-02-27T11:36:17;99942.19;;;-0.60;75.63
54806;BME280;62866;55.776;37.496;2023-02-27T11:38:52;99945.13;;;-0.76;75.84
54806;BME280;62866;55.776;37.496;2023-02-27T11:41:20;99942.59;;;-0.78;76.23
54806;BME280;62866;55.776;37.496;2023-02-27T11:43:53;99954.72;;;-0.64;75.99
54806;BME280;62866;55.776;37.496;2023-02-27T11:46:23;99960.81;;;-0.63;76.20
54806;BME280;62866;55.776;37.496;2023-02-27T11:48:52;99953.28;;;-0.57;75.51
54806;BME280;62866;55.776;37.496;2023-02-27T11:56:42;99960.59;;;-0.60;71.98
54806;BME280;62866;55.776;37.496;2023-02-27T12:05:20;99973.53;;;-0.70;70.23
54806;BME280;62866;55.776;37.496;2023-02-27T12:10:32;99959.38;;;-0.67;70.32
54806;BME280;62866;55.776;37.496;2023-02-27T12:13:04;99976.88;;;-0.33;70.11
54806;BME280;62866;55.776;37.496;2023-02-27T12:15:49;99976.81;;;-0.20;69.47
54806;BME280;62866;55.776;37.496;2023-02-27T12:18:30;99981.28;;;-0.10;69.14
54806;BME280;62866;55.776;37.496;2023-02-27T12:21:20;99982.91;;;-0.20;67.87
54806;BME280;62866;55.776;37.496;2023-02-27T12:23:54;100000.53;;;-0.33;68.01
54806;BME280;62866;55.776;37.496;2023-02-27T12:26:42;99993.97;;;-0.39;68.20
54806;BME280;62866;55.776;37.496;2023-02-27T12:32:11;100002.31;;;-0.33;68.06
54806;BME280;62866;55.776;37.496;2023-02-27T12:35:28;100001.38;;;-0.32;68.33
54806;BME280;62866;55.776;37.496;2023-02-27T12:37:33;100000.44;;;-0.31;68.28
54806;BME280;62866;55.776;37.496;2023-02-27T12:40:04;100000.41;;;-0.43;68.18
54806;BME280;62866;55.776;37.496;2023-02-27T12:42:55;100013.91;;;-0.36;68.26
54806;BME280;62866;55.776;37.496;2023-02-27T12:45:48;100018.53;;;-0.40;68.73
54806;BME280;62866;55.776;37.496;2023-02-27T12:56:55;100032.25;;;-0.71;68.91
54806;BME280;62866;55.776;37.496;2023-02-27T12:59:59;100035.34;;;-0.77;69.05
54806;BME280;62866;55.776;37.496;2023-02-27T13:02:46;100050.78;;;-0.85;68.21
54806;BME280;62866;55.776;37.496;2023-02-27T13:08:36;100057.72;;;-0.84;68.52
54806;BME280;62866;55.776;37.496;2023-02-27T13:14:01;100051.38;;;-1.05;68.34
54806;BME280;62866;55.776;37.496;2023-02-27T13:16:43;100050.63;;;-1.07;67.93
54806;BME280;62866;55.776;37.496;2023-02-27T13:21:41;100062.50;;;-1.15;67.71
54806;BME280;62866;55.776;37.496;2023-02-27T13:26:46;100050.44;;;-1.17;67.57
54806;BME280;62866;55.776;37.496;2023-02-27T13:29:17;100052.84;;;-1.14;68.55
54806;BME280;62866;55.776;37.496;2023-02-27T13:37:59;100077.00;;;-1.22;68.40
54806;BME280;62866;55.776;37.496;2023-02-27T13:40:37;100072.09;;;-1.26;68.95
54806;BME280;62866;55.776;37.496;2023-02-27T13:43:26;100071.03;;;-1.36;68.78
54806;BME280;62866;55.776;37.496;2023-02-27T13:46:00;100085.94;;;-1.37;69.21
54806;BME280;62866;55.776;37.496;2023-02-27T13:50:59;100098.31;;;-1.39;69.37
54806;BME280;62866;55.776;37.496;2023-02-27T13:53:25;100098.72;;;-1.45;69.57
54806;BME280;62866;55.776;37.496;2023-02-27T13:58:40;100115.31;;;-1.44;70.04
54806;BME280;62866;55.776;37.496;2023-02-27T14:01:15;100099.97;;;-1.63;69.36
54806;BME280;62866;55.776;37.496;2023-02-27T14:03:41;100118.75;;;-1.57;68.99
54806;BME280;62866;55.776;37.496;2023-02-27T14:06:16;100126.00;;;-1.60;68.76
54806;BME280;62866;55.776;37.496;2023-02-27T14:08:51;100120.63;;;-1.71;68.61
54806;BME280;62866;55.776;37.496;2023-02-27T14:11:25;100132.38;;;-1.77;68.21
54806;BME280;62866;55.776;37.496;2023-02-27T14:16:53;100129.28;;;-1.83;68.24
54806;BME280;62866;55.776;37.496;2023-02-27T14:24:30;100141.44;;;-1.95;68.72
54806;BME280;62866;55.776;37.496;2023-02-27T14:26:58;100139.09;;;-2.00;68.52
54806;BME280;62866;55.776;37.496;2023-02-27T14:29:30;100157.91;;;-1.93;68.34
54806;BME280;62866;55.776;37.496;2023-02-27T14:31:59;100156.13;;;-1.93;68.88
54806;BME280;62866;55.776;37.496;2023-02-27T14:34:27;100164.00;;;-1.93;68.96
54806;BME280;62866;55.776;37.496;2023-02-27T14:36:56;100166.63;;;-1.93;68.81
54806;BME280;62866;55.776;37.496;2023-02-27T14:39:40;100170.19;;;-1.94;68.54
54806;BME280;62866;55.776;37.496;2023-02-27T14:45:22;100169.94;;;-2.03;68.73
54806;BME280;62866;55.776;37.496;2023-02-27T14:47:50;100170.63;;;-2.14;69.13
54806;BME280;62866;55.776;37.496;2023-02-27T14:50:24;100174.81;;;-2.11;69.36
54806;BME280;62866;55.776;37.496;2023-02-27T14:52:50;100173.13;;;-2.12;69.24
54806;BME280;62866;55.776;37.496;2023-02-27T15:02:56;100184.94;;;-2.19;69.63
54806;BME280;62866;55.776;37.496;2023-02-27T15:05:29;100162.91;;;-2.30;70.34
54806;BME280;62866;55.776;37.496;2023-02-27T15:07:56;100186.81;;;-2.21;70.43
54806;BME280;62866;55.776;37.496;2023-02-27T15:10:27;100164.69;;;-2.30;69.87
54806;BME280;62866;55.776;37.496;2023-02-27T15:12:56;100174.13;;;-2.27;70.45
54806;BME280;62866;55.776;37.496;2023-02-27T15:15:23;100199.47;;;-2.28;70.77
54806;BME280;62866;55.776;37.496;2023-02-27T15:17:52;100200.69;;;-2.34;71.84
54806;BME280;62866;55.776;37.496;2023-02-27T15:20:29;100188.81;;;-2.39;73.58
54806;BME280;62866;55.776;37.496;2023-02-27T15:22:56;100207.91;;;-2.37;74.04
54806;BME280;62866;55.776;37.496;2023-02-27T15:25:40;100209.69;;;-2.38;73.41
54806;BME280;62866;55.776;37.496;2023-02-27T15:28:24;100223.06;;;-2.42;73.27
54806;BME280;62866;55.776;37.496;2023-02-27T15:30:53;100228.09;;;-2.39;73.09
54806;BME280;62866;55.776;37.496;2023-02-27T15:33:25;100225.56;;;-2.41;72.95